Time;durP1;ratioP1;P1;durP2;ratioP2;P2;SDS_P1;SDS_P2;PMS_P1;PMS_P2;Temp;Humidity;BMP_temperature;BMP_pressure;BME280_temperature;BME280_humidity;BME280_pressure;Samples;Min_cycle;Max_cycle;Signal;HPM_P1;HPM_P2
2023/05/03 00:00:07;;;;;;;6.35;3.60;;;;;;;3.63;97.38;102869.72;4974427;28;20022;-83
2023/05/03 00:02:38;;;;;;;5.43;3.00;;;;;;;3.78;97.81;102907.19;4974454;28;20046;-83
2023/05/03 00:05:06;;;;;;;7.18;3.65;;;;;;;3.72;98.07;102902.94;4974425;28;20027;-81
2023/05/03 00:07:31;;;;;;;6.53;4.00;;;;;;;3.42;98.11;102857.00;4974409;28;20110;-83
2023/05/03 00:09:57;;;;;;;7.22;3.53;;;;;;;3.48;98.43;102869.75;4974191;28;20115;-84
2023/05/03 00:12:22;;;;;;;6.28;3.70;;;;;;;3.65;98.38;102908.06;4973895;28;20470;-84
2023/05/03 00:14:47;;;;;;;7.07;3.80;;;;;;;3.38;98.65;102863.81;4973983;28;20519;-82
2023/05/03 00:17:13;;;;;;;7.30;3.80;;;;;;;3.61;98.65;102901.25;4974190;28;20077;-82
2023/05/03 00:19:38;;;;;;;13.05;4.35;;;;;;;3.24;99.09;102844.22;4974167;28;20045;-85
2023/05/03 00:22:04;;;;;;;6.82;3.83;;;;;;;3.60;98.99;102904.66;4974097;28;20037;-82
2023/05/03 00:24:29;;;;;;;7.65;3.53;;;;;;;3.61;99.37;102903.81;4974199;28;20482;-85
2023/05/03 00:26:55;;;;;;;6.13;3.90;;;;;;;3.55;99.55;102894.47;4973985;28;20026;-83
2023/05/03 00:29:21;;;;;;;7.03;3.50;;;;;;;3.30;99.16;102851.88;4973764;28;20031;-84
2023/05/03 00:31:47;;;;;;;7.50;3.88;;;;;;;3.24;99.02;102842.53;4973610;28;20113;-85
2023/05/03 00:34:12;;;;;;;9.77;4.32;;;;;;;3.58;98.75;102902.13;4956498;28;20118;-85
2023/05/03 00:36:37;;;;;;;10.68;3.83;;;;;;;3.61;98.59;102904.66;4974008;28;20463;-84
2023/05/03 00:39:03;;;;;;;8.10;4.13;;;;;;;3.62;98.50;102897.84;4974087;28;20039;-78
2023/05/03 00:41:28;;;;;;;9.85;4.13;;;;;;;3.60;98.64;102895.28;4973650;28;20049;-78
2023/05/03 00:43:53;;;;;;;7.28;3.90;;;;;;;3.54;98.04;102902.97;4973534;28;20066;-77
2023/05/03 00:46:19;;;;;;;11.25;3.97;;;;;;;3.33;98.04;102873.16;4973494;28;20033;-78
2023/05/03 00:48:48;;;;;;;6.15;3.60;;;;;;;3.59;97.65;102906.38;4972924;28;20380;-80
2023/05/03 00:51:14;;;;;;;7.53;4.40;;;;;;;3.60;97.74;102912.31;4956189;28;20538;-78
2023/05/03 00:53:41;;;;;;;8.27;4.03;;;;;;;3.16;97.43;102840.00;4973623;28;20035;-78
2023/05/03 00:56:07;;;;;;;6.78;4.03;;;;;;;3.58;97.59;102908.94;4973736;28;20101;-77
2023/05/03 00:58:35;;;;;;;8.73;4.20;;;;;;;3.54;97.71;102884.22;4973623;28;20030;-77
2023/05/03 01:01:01;;;;;;;7.68;3.85;;;;;;;3.10;98.24;102824.66;4973481;28;20042;-78
2023/05/03 01:03:27;;;;;;;6.20;3.65;;;;;;;3.50;98.07;102893.59;4973699;28;20101;-79
2023/05/03 01:06:01;;;;;;;9.20;4.68;;;;;;;3.16;98.11;102839.13;4973686;28;20022;-79
2023/05/03 01:08:49;;;;;;;7.45;3.92;;;;;;;3.48;98.25;102897.00;4973282;28;20023;-78
2023/05/03 01:11:25;;;;;;;8.60;4.10;;;;;;;3.41;98.80;102898.69;4973460;28;20485;-79
2023/05/03 01:14:15;;;;;;;9.95;4.22;;;;;;;3.39;98.36;102898.72;4973288;28;20124;-80
2023/05/03 01:16:50;;;;;;;7.82;4.03;;;;;;;3.33;98.93;102891.03;4973550;28;20027;-78
2023/05/03 01:19:22;;;;;;;8.52;4.30;;;;;;;2.94;99.04;102830.59;4973519;28;20069;-80
2023/05/03 01:21:55;;;;;;;10.40;4.30;;;;;;;3.26;98.80;102894.47;4973399;28;20097;-78
2023/05/03 01:24:25;;;;;;;7.63;4.25;;;;;;;3.30;98.94;102896.16;4973385;28;20035;-81
2023/05/03 01:26:50;;;;;;;8.80;4.55;;;;;;;3.28;98.73;102897.84;4973297;28;20026;-78
2023/05/03 01:29:15;;;;;;;9.18;4.50;;;;;;;3.17;99.29;102900.41;4973060;28;20023;-78
2023/05/03 01:31:51;;;;;;;8.90;4.78;;;;;;;3.23;99.36;102911.47;4973081;28;20038;-83
2023/05/03 01:34:49;;;;;;;9.98;4.65;;;;;;;3.24;99.19;102905.50;4956165;28;20023;-79
2023/05/03 01:37:16;;;;;;;8.63;4.35;;;;;;;3.12;100.00;102891.88;4973282;28;20666;-80
2023/05/03 01:39:57;;;;;;;9.38;4.50;;;;;;;3.08;99.61;102871.47;4973350;28;20031;-79
2023/05/03 01:42:23;;;;;;;9.05;4.70;;;;;;;2.79;99.46;102831.44;4973218;28;20081;-80
2023/05/03 01:44:49;;;;;;;6.93;4.25;;;;;;;3.22;99.37;102907.19;4973086;28;20027;-79
2023/05/03 01:47:15;;;;;;;10.45;4.90;;;;;;;3.23;99.63;102903.78;4972867;28;20185;-79
2023/05/03 01:49:40;;;;;;;10.95;4.47;;;;;;;3.23;99.20;102907.19;4973134;28;20034;-79
2023/05/03 01:52:06;;;;;;;10.27;4.40;;;;;;;3.25;99.56;102907.22;4972866;28;20065;-79
2023/05/03 01:54:31;;;;;;;9.85;4.55;;;;;;;3.19;99.71;102913.16;5118724;23;20098;-79
2023/05/03 01:56:57;;;;;;;9.57;4.70;;;;;;;3.16;100.00;102903.81;4973133;28;20493;-80
2023/05/03 01:59:22;;;;;;;9.75;4.90;;;;;;;3.15;100.00;102917.44;4973611;28;20023;-80
2023/05/03 02:01:47;;;;;;;7.13;4.20;;;;;;;3.10;100.00;102908.91;4976417;28;20033;-79
2023/05/03 02:04:13;;;;;;;9.10;5.18;;;;;;;3.06;100.00;102912.31;4976426;28;20035;-78
2023/05/03 02:06:38;;;;;;;7.15;4.47;;;;;;;3.05;100.00;102910.59;4976390;28;20034;-79
2023/05/03 02:09:03;;;;;;;9.63;4.65;;;;;;;3.02;100.00;102907.19;4976533;28;20031;-80
2023/05/03 02:11:29;;;;;;;6.65;3.75;;;;;;;2.98;100.00;102911.44;4976601;28;20030;-80
2023/05/03 02:13:54;;;;;;;5.65;4.03;;;;;;;2.85;100.00;102897.81;4976041;28;20015;-79
2023/05/03 02:16:20;;;;;;;10.82;4.60;;;;;;;2.92;100.00;102916.50;4976296;28;20073;-80
2023/05/03 02:18:45;;;;;;;7.90;4.47;;;;;;;2.41;100.00;102836.47;4976092;28;20030;-80
2023/05/03 02:21:12;;;;;;;10.20;4.78;;;;;;;2.82;100.00;102904.59;4976117;28;20431;-83
2023/05/03 02:23:37;;;;;;;7.15;4.90;;;;;;;2.75;100.00;102896.09;4976240;28;20132;-83
2023/05/03 02:26:03;;;;;;;7.57;4.72;;;;;;;2.74;100.00;102899.47;4976208;28;20026;-82
2023/05/03 02:28:28;;;;;;;8.90;5.00;;;;;;;2.43;100.00;102860.25;4976060;28;20027;-84
2023/05/03 02:30:53;;;;;;;7.07;4.78;;;;;;;2.65;100.00;102896.03;4976055;28;20026;-84
2023/05/03 02:33:19;;;;;;;9.48;5.45;;;;;;;2.63;100.00;102892.63;4975780;28;20062;-84
2023/05/03 02:35:44;;;;;;;10.85;4.78;;;;;;;2.62;100.00;102894.31;4975876;28;20037;-84
2023/05/03 02:38:10;;;;;;;9.32;5.50;;;;;;;2.56;100.00;102882.44;4976011;28;20037;-84
2023/05/03 02:40:35;;;;;;;12.75;5.72;;;;;;;2.50;100.00;102868.78;4958222;28;20455;-84
2023/05/03 02:43:01;;;;;;;11.80;5.40;;;;;;;2.30;100.00;102841.53;4975831;28;20023;-85
2023/05/03 02:45:26;;;;;;;12.20;5.95;;;;;;;2.59;100.00;102876.47;4975694;28;20097;-85
2023/05/03 02:47:52;;;;;;;9.07;5.38;;;;;;;2.41;100.00;102830.50;4975788;28;20026;-85
2023/05/03 02:50:17;;;;;;;10.75;6.00;;;;;;;2.30;100.00;102810.09;4976811;28;20046;-83
2023/05/03 02:52:43;;;;;;;10.73;6.10;;;;;;;2.65;100.00;102855.22;4977831;28;20035;-80
2023/05/03 02:55:09;;;;;;;9.95;5.70;;;;;;;2.44;100.00;102815.22;4975665;28;20101;-78
2023/05/03 02:57:34;;;;;;;9.18;5.50;;;;;;;2.66;100.00;102849.28;4957957;28;20462;-83
2023/05/03 03:00:00;;;;;;;10.68;5.78;;;;;;;2.68;100.00;102850.13;4975472;28;20383;-84
2023/05/03 03:02:25;;;;;;;8.52;4.95;;;;;;;2.33;100.00;102791.38;4975598;28;20067;-77
2023/05/03 03:04:50;;;;;;;9.27;5.10;;;;;;;2.66;100.00;102855.25;4975377;28;20023;-80
2023/05/03 03:07:16;;;;;;;11.95;5.53;;;;;;;2.68;100.00;102856.09;4975370;28;20023;-77
2023/05/03 03:09:41;;;;;;;8.90;5.30;;;;;;;2.29;100.00;102806.69;4975666;28;20075;-78
2023/05/03 03:12:07;;;;;;;9.77;5.03;;;;;;;2.24;100.00;102815.16;4974326;28;20027;-78
2023/05/03 03:14:32;;;;;;;8.25;5.35;;;;;;;2.50;100.00;102873.88;4975222;28;20037;-78
2023/05/03 03:17:02;;;;;;;11.38;5.50;;;;;;;2.29;100.00;102844.06;4975145;28;20037;-78
2023/05/03 03:19:27;;;;;;;10.00;5.60;;;;;;;2.47;100.00;102862.00;4975137;28;20518;-79
2023/05/03 03:21:52;;;;;;;9.90;5.43;;;;;;;2.41;100.00;102849.22;4975041;28;20073;-78
2023/05/03 03:24:18;;;;;;;10.32;5.68;;;;;;;2.19;100.00;102837.25;4974965;28;20058;-79
2023/05/03 03:26:43;;;;;;;11.50;5.13;;;;;;;2.42;100.00;102883.22;4975168;28;20109;-78
2023/05/03 03:29:08;;;;;;;10.98;5.22;;;;;;;2.30;100.00;102868.72;4974837;28;20030;-78
2023/05/03 03:31:34;;;;;;;8.27;5.28;;;;;;;2.32;100.00;102874.66;4974752;28;20459;-78
2023/05/03 03:33:59;;;;;;;8.43;5.30;;;;;;;2.10;100.00;102842.28;4974785;28;20033;-78
2023/05/03 03:36:26;;;;;;;8.88;5.30;;;;;;;2.27;100.00;102881.47;4974931;28;20034;-78
2023/05/03 03:38:52;;;;;;;11.05;5.63;;;;;;;2.26;100.00;102877.19;4974777;28;20031;-78
2023/05/03 03:41:19;;;;;;;8.80;5.53;;;;;;;2.07;100.00;102849.94;4957711;28;20033;-78
2023/05/03 03:43:45;;;;;;;7.80;5.10;;;;;;;1.98;100.00;102838.00;4974695;28;20031;-78
2023/05/03 03:46:10;;;;;;;11.65;5.90;;;;;;;2.21;100.00;102872.06;4974644;28;20033;-78
2023/05/03 03:48:36;;;;;;;9.27;5.20;;;;;;;1.80;100.00;102810.72;4974587;28;20130;-79
2023/05/03 03:51:01;;;;;;;9.48;5.75;;;;;;;2.16;100.00;102871.19;4974552;28;20474;-79
2023/05/03 03:53:26;;;;;;;11.23;6.30;;;;;;;2.03;100.00;102849.06;4974369;28;20047;-79
2023/05/03 03:55:52;;;;;;;10.23;5.82;;;;;;;2.16;100.00;102871.19;4956461;28;20047;-78
2023/05/03 03:58:17;;;;;;;10.23;5.57;;;;;;;2.18;100.00;102861.03;4956951;28;20380;-79
2023/05/03 04:00:42;;;;;;;10.90;6.13;;;;;;;2.16;100.00;102871.19;4974179;28;20027;-78
2023/05/03 04:03:08;;;;;;;10.48;5.60;;;;;;;1.80;100.00;102823.47;4974339;28;20030;-80
2023/05/03 04:05:33;;;;;;;11.18;5.75;;;;;;;2.03;100.00;102863.50;4974365;28;20035;-80
2023/05/03 04:07:58;;;;;;;10.07;5.68;;;;;;;1.85;100.00;102828.56;4974199;28;20027;-78
2023/05/03 04:10:24;;;;;;;10.07;5.72;;;;;;;1.79;100.00;102819.22;4974102;28;20122;-79
2023/05/03 04:12:49;;;;;;;10.18;6.25;;;;;;;2.10;100.00;102883.06;4974025;28;20031;-77
2023/05/03 04:15:14;;;;;;;10.52;5.78;;;;;;;1.93;100.00;102865.97;4974035;28;20469;-78
2023/05/03 04:17:40;;;;;;;10.95;5.97;;;;;;;1.84;100.00;102847.25;4974218;28;20080;-78
2023/05/03 04:20:09;;;;;;;12.98;6.15;;;;;;;2.16;100.00;102891.56;4974121;28;20113;-78
2023/05/03 04:22:35;;;;;;;13.90;6.72;;;;;;;2.09;100.00;102889.00;4956526;28;20431;-78
2023/05/03 04:25:00;;;;;;;11.00;6.15;;;;;;;2.17;100.00;102889.91;4973811;28;20026;-80
2023/05/03 04:27:26;;;;;;;11.35;5.95;;;;;;;2.04;100.00;102857.53;4974044;28;20031;-79
2023/05/03 04:29:52;;;;;;;9.82;5.88;;;;;;;2.00;100.00;102856.69;4974002;28;20399;-79
2023/05/03 04:32:22;;;;;;;10.23;6.43;;;;;;;2.00;100.00;102852.44;4973675;28;20038;-79
2023/05/03 04:34:47;;;;;;;12.75;6.85;;;;;;;1.98;100.00;102838.00;4956052;28;20141;-78
2023/05/03 04:37:13;;;;;;;9.32;5.90;;;;;;;1.98;100.00;102836.31;4973909;28;20458;-78
2023/05/03 04:39:38;;;;;;;10.30;6.78;;;;;;;2.38;100.00;102905.31;4973621;28;20031;-78
2023/05/03 04:42:03;;;;;;;13.73;6.47;;;;;;;2.46;100.00;102910.41;4974126;28;20036;-78
2023/05/03 04:44:29;;;;;;;12.18;6.75;;;;;;;2.54;100.00;102912.16;4974121;28;20030;-78
2023/05/03 04:46:54;;;;;;;12.50;6.35;;;;;;;2.58;100.00;102921.53;4973710;28;20105;-77
2023/05/03 04:49:19;;;;;;;11.13;6.60;;;;;;;2.52;100.00;102907.91;4956404;28;20129;-78
2023/05/03 04:51:45;;;;;;;10.55;6.32;;;;;;;2.75;100.00;102928.38;4973638;28;20034;-78
2023/05/03 04:54:10;;;;;;;12.38;6.40;;;;;;;2.82;100.00;102932.66;4973477;28;20030;-78
2023/05/03 04:56:35;;;;;;;10.05;5.80;;;;;;;2.90;100.00;102932.69;4973564;28;20414;-78
2023/05/03 04:59:01;;;;;;;11.65;6.50;;;;;;;2.73;100.00;102907.09;4973890;28;20050;-79
2023/05/03 05:01:27;;;;;;;10.77;5.90;;;;;;;3.07;100.00;102947.19;4973477;28;20494;-78
2023/05/03 05:03:53;;;;;;;12.07;6.50;;;;;;;3.20;100.00;102948.06;4973720;28;20030;-77
2023/05/03 05:06:18;;;;;;;12.13;6.00;;;;;;;3.01;100.00;102902.94;4973808;28;20077;-79
2023/05/03 05:08:44;;;;;;;12.73;6.35;;;;;;;3.50;99.64;102949.78;4973446;28;20038;-78
2023/05/03 05:11:11;;;;;;;11.45;6.07;;;;;;;3.60;98.70;102925.94;4973443;28;20027;-78
2023/05/03 05:13:38;;;;;;;12.25;6.22;;;;;;;4.43;96.65;102921.53;4973941;28;20023;-79
2023/05/03 05:16:03;;;;;;;11.20;5.90;;;;;;;5.58;90.77;102888.31;4973709;28;20027;-78
2023/05/03 05:18:29;;;;;;;8.80;5.40;;;;;;;6.03;87.23;102946.03;4973820;28;20038;-81
2023/05/03 05:20:54;;;;;;;9.32;5.55;;;;;;;5.85;86.79;102920.53;4974080;28;20027;-79
2023/05/03 05:23:19;;;;;;;9.93;5.55;;;;;;;6.04;85.84;102945.16;4974095;28;20023;-79
2023/05/03 05:25:45;;;;;;;9.00;5.32;;;;;;;5.85;86.08;102938.50;4974203;28;20082;-80
2023/05/03 05:28:10;;;;;;;11.73;5.35;;;;;;;5.57;86.01;102939.59;4974778;28;20464;-82
2023/05/03 05:30:35;;;;;;;9.77;4.82;;;;;;;5.05;86.71;102889.63;4978921;28;20463;-84
2023/05/03 05:33:02;;;;;;;11.30;5.65;;;;;;;5.15;87.46;102951.88;4977206;28;20098;-81
2023/05/03 05:35:27;;;;;;;13.05;5.55;;;;;;;4.85;88.76;102905.09;4978888;28;20027;-81
2023/05/03 05:37:52;;;;;;;13.48;5.68;;;;;;;5.19;88.77;102939.00;4980553;28;20112;-81
2023/05/03 05:40:18;;;;;;;11.32;5.63;;;;;;;6.20;86.29;102924.50;4978054;28;20034;-82
2023/05/03 05:42:45;;;;;;;11.05;6.07;;;;;;;8.25;79.32;102941.03;4982055;28;20114;-84
2023/05/03 05:45:11;;;;;;;10.70;4.85;;;;;;;8.80;72.42;102782.78;4946688;28;20507;-84
2023/05/03 05:47:36;;;;;;;9.95;4.68;;;;;;;10.40;67.11;102885.16;4980646;28;20027;-82
2023/05/03 05:50:02;;;;;;;6.75;4.00;;;;;;;11.62;62.64;102914.91;4981509;28;20047;-81
2023/05/03 05:52:28;;;;;;;9.02;4.18;;;;;;;12.33;58.50;102894.22;4980696;28;20105;-83
2023/05/03 05:54:53;;;;;;;7.43;4.00;;;;;;;13.48;55.71;102945.03;4978323;28;20034;-81
2023/05/03 05:57:19;;;;;;;8.82;3.72;;;;;;;14.07;52.28;102926.06;4977786;28;20026;-83
2023/05/03 05:59:44;;;;;;;6.10;3.67;;;;;;;14.58;50.46;102949.78;4976713;28;20069;-81
2023/05/03 06:02:21;;;;;;;6.70;4.05;;;;;;;14.66;51.16;102939.03;4959519;28;20102;-80
2023/05/03 06:04:49;;;;;;;5.88;3.67;;;;;;;15.15;48.13;102954.00;4976401;28;20031;-80
2023/05/03 06:07:15;;;;;;;7.32;4.10;;;;;;;15.32;47.21;102954.94;4977651;28;20081;-79
2023/05/03 06:09:41;;;;;;;7.55;3.47;;;;;;;15.32;46.12;102892.44;4976824;28;20114;-81
2023/05/03 06:12:07;;;;;;;6.32;3.50;;;;;;;15.23;46.48;102951.00;4976667;28;20074;-81
2023/05/03 06:14:32;;;;;;;9.00;3.50;;;;;;;15.20;46.71;102951.16;4976803;28;20050;-82
2023/05/03 06:16:59;;;;;;;5.65;3.63;;;;;;;15.20;47.19;102918.16;4977806;28;20026;-85
2023/05/03 06:19:24;;;;;;;7.25;3.67;;;;;;;15.83;45.61;102937.63;4978733;28;20030;-84
2023/05/03 06:21:50;;;;;;;8.05;3.40;;;;;;;16.20;44.11;102900.91;4976875;28;20029;-86
2023/05/03 06:24:20;;;;;;;7.75;3.75;;;;;;;16.24;44.53;102907.66;4976508;28;20054;-84
2023/05/03 06:26:47;;;;;;;6.22;3.50;;;;;;;16.24;43.20;102881.56;4976038;28;20045;-88
2023/05/03 06:29:15;;;;;;;8.40;3.45;;;;;;;16.43;43.26;102891.00;4976498;28;20051;-87
2023/05/03 06:31:40;;;;;;;10.70;4.28;;;;;;;16.69;42.52;102879.13;4975434;28;20027;-84
2023/05/03 06:34:06;;;;;;;5.70;3.50;;;;;;;17.45;41.80;102909.50;4976704;28;20525;-86
2023/05/03 06:36:31;;;;;;;9.07;3.63;;;;;;;17.82;40.65;102928.25;4958997;28;20027;-88
2023/05/03 06:38:57;;;;;;;6.97;3.60;;;;;;;17.89;39.64;102924.31;4976019;28;20034;-88
2023/05/03 06:41:22;;;;;;;9.85;3.78;;;;;;;17.62;40.20;102910.28;4957528;28;20039;-88
2023/05/03 06:43:48;;;;;;;9.45;3.92;;;;;;;18.19;40.73;102918.16;4958228;28;20104;-84
2023/05/03 06:46:13;;;;;;;9.10;3.92;;;;;;;18.84;38.94;102913.19;4958486;28;20033;-87
2023/05/03 06:48:38;;;;;;;10.57;4.38;;;;;;;18.92;38.27;102916.97;4959042;28;20039;-82
2023/05/03 07:26:26;;;;;;;7.63;3.42;;;;;;;13.58;47.10;102922.13;4975313;28;20082;-80
2023/05/03 07:31:52;;;;;;;7.95;3.53;;;;;;;10.40;51.80;102712.94;4974710;28;20050;-82
2023/05/03 07:34:18;;;;;;;9.90;4.25;;;;;;;11.24;52.75;102921.34;4973032;28;20019;-77
2023/05/03 07:36:43;;;;;;;7.25;3.53;;;;;;;10.80;54.34;102918.38;4975386;28;20492;-79
2023/05/03 07:39:08;;;;;;;8.63;3.65;;;;;;;10.54;56.04;102919.19;4975004;28;20023;-79
2023/05/03 07:41:34;;;;;;;7.05;3.47;;;;;;;10.35;57.34;102908.53;4974506;28;20027;-79
2023/05/03 07:44:00;;;;;;;7.63;3.38;;;;;;;10.13;57.94;102876.41;4956999;28;20053;-78
2023/05/03 07:46:25;;;;;;;8.30;4.22;;;;;;;10.31;57.20;102915.50;4974137;28;20022;-77
2023/05/03 07:48:51;;;;;;;9.10;3.88;;;;;;;10.40;58.10;102906.66;4974668;28;20050;-76
2023/05/03 07:51:16;;;;;;;6.20;3.65;;;;;;;10.32;57.02;102896.56;4974442;28;20030;-79
2023/05/03 07:53:42;;;;;;;8.73;3.83;;;;;;;10.33;57.04;102882.75;4974733;28;20026;-81
2023/05/03 07:56:07;;;;;;;8.73;4.07;;;;;;;10.37;56.90;102890.41;4974238;28;20035;-80
2023/05/03 07:58:35;;;;;;;6.55;3.58;;;;;;;10.42;58.64;102889.41;4974106;28;20027;-79
2023/05/03 08:01:07;;;;;;;11.48;4.20;;;;;;;10.40;57.99;102873.06;4974340;28;20074;-78
2023/05/03 08:03:32;;;;;;;6.50;3.75;;;;;;;10.25;58.07;102839.97;4940794;28;20045;-79
2023/05/03 08:05:57;;;;;;;7.45;3.47;;;;;;;10.45;57.82;102852.28;4974409;28;20026;-79
2023/05/03 08:08:23;;;;;;;8.52;3.70;;;;;;;10.58;58.40;102851.88;4974133;28;20482;-79
2023/05/03 08:10:51;;;;;;;8.27;4.47;;;;;;;10.92;58.42;102866.34;4974006;28;20023;-78
2023/05/03 08:13:17;;;;;;;7.43;3.30;;;;;;;10.69;56.95;102796.41;4974165;28;20058;-80
2023/05/03 08:15:42;;;;;;;8.25;4.25;;;;;;;10.70;55.68;102787.78;4974220;28;20166;-79
2023/05/03 08:18:07;;;;;;;8.13;3.90;;;;;;;11.13;56.31;102850.13;4973931;28;20085;-80
2023/05/03 08:20:35;;;;;;;9.48;4.30;;;;;;;11.14;56.62;102856.97;4974080;28;20046;-79
2023/05/03 08:23:01;;;;;;;7.07;4.00;;;;;;;10.90;55.39;102855.16;4974181;28;20497;-78
2023/05/03 08:25:27;;;;;;;6.45;4.10;;;;;;;10.78;57.56;102847.81;4972411;28;20034;-80
2023/05/03 08:27:54;;;;;;;7.03;4.00;;;;;;;10.90;56.47;102850.84;4974339;28;20033;-81
2023/05/03 08:30:20;;;;;;;7.75;4.07;;;;;;;10.89;56.62;102823.31;4956492;28;20390;-80
2023/05/03 08:32:46;;;;;;;7.15;4.13;;;;;;;11.20;56.25;102848.16;4973721;28;20085;-80
2023/05/03 08:35:13;;;;;;;9.82;3.92;;;;;;;11.28;56.27;102840.16;4972503;28;20352;-81
2023/05/03 08:37:40;;;;;;;11.35;4.35;;;;;;;11.48;55.79;102856.69;4973753;28;20034;-82
2023/05/03 08:40:10;;;;;;;9.75;4.10;;;;;;;11.55;54.55;102843.53;4956507;28;20027;-81
2023/05/03 08:42:40;;;;;;;6.57;3.92;;;;;;;11.46;54.31;102836.94;4973742;28;20479;-81
2023/05/03 08:45:11;;;;;;;6.82;3.45;;;;;;;11.63;54.56;102847.56;4973713;28;20466;-81
2023/05/03 08:47:39;;;;;;;;;;;;;;;11.77;54.29;102847.91;4974101;28;20019;-81
2023/05/03 08:50:05;;;;;;;7.88;3.72;;;;;;;11.72;53.40;102831.69;4956061;28;20384;-81
2023/05/03 08:52:33;;;;;;;9.00;3.70;;;;;;;11.35;52.37;102751.09;4973453;28;20078;-81
2023/05/03 08:54:58;;;;;;;7.60;3.80;;;;;;;11.98;53.81;102853.22;4973537;28;20027;-80
2023/05/03 08:57:24;;;;;;;8.68;4.05;;;;;;;11.95;52.25;102854.19;4973338;28;20090;-81
2023/05/03 09:00:00;;;;;;;8.77;4.10;;;;;;;11.67;53.51;102824.97;4973444;28;20114;-82
2023/05/03 09:02:28;;;;;;;6.88;3.83;;;;;;;12.03;53.04;102859.09;4973723;28;20475;-78
2023/05/03 09:04:55;;;;;;;8.88;4.03;;;;;;;12.13;52.83;102864.78;4973512;28;20114;-78
2023/05/03 09:07:20;;;;;;;7.78;4.20;;;;;;;11.63;52.75;102802.72;4973522;28;20054;-81
2023/05/03 09:09:46;;;;;;;9.18;3.97;;;;;;;11.68;52.75;102837.88;4974732;28;20049;-82
2023/05/03 09:12:32;;;;;;;7.28;4.22;;;;;;;12.00;54.84;102869.56;4977659;28;20070;-81
2023/05/03 09:14:57;;;;;;;10.02;3.90;;;;;;;11.98;52.97;102861.00;4977238;28;20031;-77
2023/05/03 09:17:22;;;;;;;9.43;4.20;;;;;;;11.64;51.36;102817.34;4977635;28;20015;-80
2023/05/03 09:19:50;;;;;;;8.90;3.90;;;;;;;11.66;53.21;102841.41;4976776;28;20026;-80
2023/05/03 09:22:15;;;;;;;9.75;4.40;;;;;;;11.85;54.13;102862.34;4960297;28;20022;-78
2023/05/03 09:24:51;;;;;;;7.82;4.00;;;;;;;11.73;52.83;102830.78;4977449;28;20077;-78
2023/05/03 09:27:18;;;;;;;8.90;4.07;;;;;;;11.65;53.42;102803.50;4977031;28;20106;-81
2023/05/03 09:29:44;;;;;;;8.38;4.47;;;;;;;11.80;55.01;102802.13;4977149;28;20463;-79
2023/05/03 09:32:10;;;;;;;8.90;4.53;;;;;;;12.16;53.87;102834.41;4977328;28;20110;-81
2023/05/03 09:34:36;;;;;;;8.73;4.40;;;;;;;11.83;53.43;102774.41;4976929;28;20109;-81
2023/05/03 09:37:01;;;;;;;15.15;4.63;;;;;;;12.01;52.64;102819.47;4977030;28;20030;-80
2023/05/03 09:39:26;;;;;;;11.05;4.22;;;;;;;11.95;52.54;102811.91;4977233;28;20078;-79
2023/05/03 09:41:52;;;;;;;8.30;4.63;;;;;;;12.00;52.34;102807.44;4977418;28;20031;-82
2023/05/03 09:44:18;;;;;;;8.18;4.35;;;;;;;12.27;52.28;102846.97;4960441;28;20031;-80
2023/05/03 09:47:05;;;;;;;9.63;4.45;;;;;;;12.00;53.22;102826.41;4977087;28;20027;-80
2023/05/03 09:49:32;;;;;;;8.27;4.50;;;;;;;11.75;52.98;102802.25;4976676;28;20054;-81
2023/05/03 09:51:58;;;;;;;8.20;4.45;;;;;;;12.10;52.82;102855.38;4976477;28;20031;-78
2023/05/03 09:54:24;;;;;;;8.95;4.30;;;;;;;12.04;52.43;102835.72;4959279;28;20445;-80
2023/05/03 09:56:51;;;;;;;8.05;4.45;;;;;;;12.07;53.65;102803.69;4976503;28;20046;-81
2023/05/03 09:59:17;;;;;;;10.00;4.65;;;;;;;12.34;52.85;102830.28;4976808;28;20076;-80
2023/05/03 10:01:43;;;;;;;10.77;4.90;;;;;;;12.44;53.48;102831.63;4976905;28;20117;-80
2023/05/03 10:04:09;;;;;;;8.73;4.32;;;;;;;12.36;52.03;102831.06;4976549;28;20462;-81
2023/05/03 10:06:40;;;;;;;6.45;4.30;;;;;;;12.43;52.82;102840.31;4958960;28;20113;-80
2023/05/03 10:09:27;;;;;;;10.25;4.60;;;;;;;12.26;52.98;102809.00;4976605;28;20107;-80
2023/05/03 10:11:53;;;;;;;9.25;4.70;;;;;;;12.54;54.04;102842.47;4976311;28;20033;-81
2023/05/03 10:14:20;;;;;;;10.68;4.57;;;;;;;12.09;52.66;102781.16;4976434;28;20031;-83
2023/05/03 10:16:52;;;;;;;8.75;4.40;;;;;;;12.15;53.56;102788.72;4976274;28;20052;-84
2023/05/03 10:19:33;;;;;;;8.85;4.70;;;;;;;12.50;52.81;102839.19;4976246;28;20023;-87
2023/05/03 10:22:01;;;;;;;8.73;4.45;;;;;;;12.58;54.88;102836.25;4975638;28;20046;-86
2023/05/03 10:24:26;;;;;;;9.23;5.00;;;;;;;12.26;53.45;102796.06;4975086;28;20023;-80
2023/05/03 10:26:54;;;;;;;7.28;4.38;;;;;;;11.96;53.85;102759.22;4976567;28;20034;-81
2023/05/03 10:29:53;;;;;;;11.00;4.60;;;;;;;12.52;54.45;102839.09;4976143;28;20027;-89
2023/05/03 10:32:34;;;;;;;8.93;4.55;;;;;;;12.53;52.83;102838.19;4975532;28;20089;-89
2023/05/03 10:35:02;;;;;;;8.50;4.20;;;;;;;12.31;53.01;102797.59;4977030;28;20459;-87
2023/05/03 10:37:28;;;;;;;9.48;4.57;;;;;;;12.46;50.70;102819.44;4976827;28;20023;-92
2023/05/03 10:39:55;;;;;;;10.00;5.05;;;;;;;12.48;52.16;102824.56;4978590;28;20031;-92
2023/05/03 10:42:23;;;;;;;9.18;4.13;;;;;;;12.59;50.85;102832.78;4976495;28;20541;-91
2023/05/03 10:44:48;;;;;;;8.77;4.15;;;;;;;12.63;51.44;102832.59;4977230;28;20113;-82
2023/05/03 10:47:17;;;;;;;7.03;4.40;;;;;;;12.74;52.14;102836.50;4975970;28;20062;-89
2023/05/03 10:49:43;;;;;;;11.32;5.18;;;;;;;12.76;50.40;102842.47;4975886;28;20022;-81
2023/05/03 10:52:34;;;;;;;8.50;4.40;;;;;;;12.80;50.69;102836.28;4975572;28;20426;-79
2023/05/03 10:54:59;;;;;;;7.70;4.47;;;;;;;12.78;50.69;102819.91;4975704;28;20434;-78
2023/05/03 10:57:30;;;;;;;10.70;4.60;;;;;;;12.87;50.57;102822.97;4975306;28;20097;-79
2023/05/03 10:59:57;;;;;;;9.00;4.15;;;;;;;12.93;51.25;102838.28;4975337;28;20027;-80
2023/05/03 11:02:30;;;;;;;8.15;4.43;;;;;;;12.70;50.11;102775.34;4958497;28;20140;-79
2023/05/03 11:05:01;;;;;;;10.77;4.13;;;;;;;13.12;51.11;102819.38;4975485;28;20041;-79
2023/05/03 11:07:27;;;;;;;;;;;;;;;13.27;52.54;102823.09;4975649;28;20173;-80
2023/05/03 11:09:52;;;;;;;8.68;4.90;;;;;;;13.37;54.99;102799.31;4975372;28;20008;-80
2023/05/03 11:12:18;;;;;;;8.15;4.55;;;;;;;13.46;51.00;102817.06;4974930;28;20105;-81
2023/05/03 11:14:43;;;;;;;11.02;4.45;;;;;;;13.02;52.25;102750.66;4975608;28;20022;-80
2023/05/03 11:17:08;;;;;;;9.65;4.68;;;;;;;13.25;49.88;102815.38;4975239;28;20027;-82
2023/05/03 11:19:34;;;;;;;9.27;4.68;;;;;;;12.69;50.20;102725.25;4975176;28;20054;-85
2023/05/03 11:22:00;;;;;;;8.60;4.60;;;;;;;13.33;49.79;102802.94;4974963;28;20077;-81
2023/05/03 11:24:26;;;;;;;9.13;4.00;;;;;;;13.13;49.24;102769.19;4957827;28;20105;-79
2023/05/03 11:26:52;;;;;;;8.85;4.55;;;;;;;13.30;51.58;102789.25;4974862;28;20030;-78
2023/05/03 11:29:17;;;;;;;8.52;4.20;;;;;;;13.29;49.48;102796.19;4974852;28;20434;-81
2023/05/03 11:31:43;;;;;;;8.95;4.28;;;;;;;13.13;51.45;102744.09;4974465;28;20114;-81
2023/05/03 11:34:10;;;;;;;8.23;4.28;;;;;;;13.38;49.68;102793.22;4972937;28;20050;-79
2023/05/03 11:36:36;;;;;;;9.30;4.63;;;;;;;13.20;51.15;102749.91;4973774;28;20401;-80
2023/05/03 11:39:04;;;;;;;8.23;4.43;;;;;;;13.42;50.63;102761.00;4957443;28;20121;-77
2023/05/03 11:41:30;;;;;;;10.45;5.32;;;;;;;13.32;49.98;102751.09;4957828;28;20030;-79
2023/05/03 11:43:56;;;;;;;9.77;5.10;;;;;;;13.57;49.32;102777.69;4974163;28;20045;-80
2023/05/03 11:46:25;;;;;;;10.00;5.03;;;;;;;13.39;49.72;102757.72;4974641;28;20077;-79
2023/05/03 11:48:50;;;;;;;9.40;4.20;;;;;;;13.47;49.69;102758.22;4974692;28;20142;-81
2023/05/03 11:51:21;;;;;;;9.52;4.50;;;;;;;13.26;48.07;102728.84;4974975;28;20031;-81
2023/05/03 11:53:47;;;;;;;7.35;4.35;;;;;;;13.44;49.15;102764.38;4974581;28;20057;-81
2023/05/03 11:56:14;;;;;;;7.90;4.55;;;;;;;13.46;47.52;102772.09;4956856;28;20047;-80
2023/05/03 11:58:58;;;;;;;8.80;5.03;;;;;;;13.33;49.15;102727.69;4974352;28;20027;-80
2023/05/03 12:01:25;;;;;;;7.20;4.40;;;;;;;13.57;49.18;102746.53;4957173;28;20439;-81